Time;durP1;ratioP1;P1;durP2;ratioP2;P2;SDS_P1;SDS_P2;PMS_P1;PMS_P2;Temp;Humidity;BMP_temperature;BMP_pressure;BME280_temperature;BME280_humidity;BME280_pressure;Samples;Min_cycle;Max_cycle;Signal;HPM_P1;HPM_P2
2023/05/15 00:01:54;;;;;;;18.77;14.15;;;;;;;;;;5091984;28;20267;-63
2023/05/15 00:04:20;;;;;;;19.38;13.73;;;;;;;;;;5091179;28;20230;-63
2023/05/15 00:06:45;;;;;;;15.43;13.32;;;;;;;;;;5076466;28;20681;-63
2023/05/15 00:09:11;;;;;;;19.58;14.95;;;;;;;;;;5072351;28;20217;-63
2023/05/15 00:11:36;;;;;;;18.92;14.18;;;;;;;;;;5091819;28;20271;-63
2023/05/15 00:14:01;;;;;;;16.15;12.48;;;;;;;;;;5082825;28;20337;-62
2023/05/15 00:16:27;;;;;;;18.15;14.35;;;;;;;;;;5071419;28;20213;-62
2023/05/15 00:18:52;;;;;;;20.60;14.82;;;;;;;;;;5071436;28;20360;-63
2023/05/15 00:21:17;;;;;;;17.23;14.35;;;;;;;;;;5070298;28;20202;-63
2023/05/15 00:23:43;;;;;;;18.88;15.50;;;;;;;;;;5071149;28;20255;-63
2023/05/15 00:26:08;;;;;;;20.40;14.07;;;;;;;;;;5071104;28;20222;-62
2023/05/15 00:28:33;;;;;;;15.63;12.77;;;;;;;;;;5070431;28;20229;-63
2023/05/15 00:30:58;;;;;;;21.40;14.20;;;;;;;;;;5071021;28;20218;-63
2023/05/15 00:33:24;;;;;;;19.88;15.02;;;;;;;;;;5070506;28;20723;-63
2023/05/15 00:35:50;;;;;;;20.85;15.63;;;;;;;;;;5070243;28;20211;-63
2023/05/15 00:38:15;;;;;;;19.55;15.52;;;;;;;;;;5069471;28;20449;-63
2023/05/15 00:40:40;;;;;;;19.88;15.82;;;;;;;;;;5070973;28;20210;-63
2023/05/15 00:43:05;;;;;;;21.60;16.35;;;;;;;;;;5068451;28;20259;-62
2023/05/15 00:45:31;;;;;;;17.98;14.60;;;;;;;;;;5070665;28;20240;-63
2023/05/15 00:47:56;;;;;;;19.05;14.23;;;;;;;;;;5070652;28;20264;-63
2023/05/15 00:50:21;;;;;;;19.00;13.63;;;;;;;;;;5070011;28;20217;-63
2023/05/15 00:52:47;;;;;;;20.13;14.77;;;;;;;;;;5069671;28;20704;-63
2023/05/15 00:55:12;;;;;;;18.50;14.05;;;;;;;;;;5068151;28;20206;-62
2023/05/15 00:57:37;;;;;;;17.80;15.45;;;;;;;;;;5070824;28;20276;-62
2023/05/15 01:00:09;;;;;;;17.90;15.15;;;;;;;;;;5068693;28;20211;-62
2023/05/15 01:02:35;;;;;;;18.98;14.38;;;;;;;;;;5070284;28;20213;-62
2023/05/15 01:05:00;;;;;;;22.52;14.35;;;;;;;;;;5069892;28;20234;-61
2023/05/15 01:07:26;;;;;;;19.25;13.80;;;;;;;;;;5089966;28;20216;-62
2023/05/15 01:09:51;;;;;;;17.48;13.82;;;;;;;;;;5082803;28;20207;-62
2023/05/15 01:12:16;;;;;;;15.57;13.20;;;;;;;;;;5068875;28;20262;-63
2023/05/15 01:14:42;;;;;;;16.42;12.68;;;;;;;;;;5078822;28;20226;-63
2023/05/15 01:17:07;;;;;;;17.35;12.80;;;;;;;;;;5080111;28;20739;-62
2023/05/15 01:19:34;;;;;;;17.80;12.40;;;;;;;;;;5090507;28;20222;-62
2023/05/15 01:21:59;;;;;;;13.95;12.10;;;;;;;;;;5090650;28;20289;-62
2023/05/15 01:24:43;;;;;;;17.38;12.68;;;;;;;;;;5089136;28;20657;-62
2023/05/15 01:27:12;;;;;;;16.80;12.52;;;;;;;;;;5090169;28;20206;-62
2023/05/15 01:29:37;;;;;;;14.10;11.60;;;;;;;;;;5089111;28;20230;-63
2023/05/15 01:32:05;;;;;;;19.35;12.82;;;;;;;;;;5089275;28;20240;-62
2023/05/15 01:34:51;;;;;;;16.23;11.68;;;;;;;;;;5090369;28;20259;-63
2023/05/15 01:40:19;;;;;;;15.95;12.38;;;;;;;;;;5081458;28;20348;-62
2023/05/15 01:42:49;;;;;;;13.25;11.63;;;;;;;;;;5080500;28;20700;-62
2023/05/15 01:45:14;;;;;;;13.20;11.85;;;;;;;;;;5073156;28;20685;-63
2023/05/15 01:47:40;;;;;;;13.88;10.43;;;;;;;;;;5068742;28;20229;-63
2023/05/15 01:50:06;;;;;;;13.75;11.85;;;;;;;;;;5088920;28;20214;-63
2023/05/15 01:52:32;;;;;;;14.13;11.60;;;;;;;;;;5089566;28;20213;-62
2023/05/15 01:54:57;;;;;;;14.55;11.85;;;;;;;;;;5088971;28;20206;-62
2023/05/15 01:57:22;;;;;;;13.88;11.05;;;;;;;;;;5079244;28;20217;-63
2023/05/15 01:59:48;;;;;;;13.45;11.13;;;;;;;;;;5068280;28;20741;-63
2023/05/15 02:02:13;;;;;;;13.48;11.00;;;;;;;;;;5069324;28;20218;-63
2023/05/15 02:04:38;;;;;;;14.45;11.05;;;;;;;;;;5069853;28;20218;-63
2023/05/15 02:07:04;;;;;;;12.57;10.70;;;;;;;;;;5084968;28;20213;-62
2023/05/15 02:09:29;;;;;;;16.42;11.68;;;;;;;;;;5090248;28;20209;-63
2023/05/15 02:11:55;;;;;;;15.80;10.98;;;;;;;;;;5089942;28;20628;-62
2023/05/15 02:14:20;;;;;;;13.57;10.63;;;;;;;;;;5080457;28;20594;-62
2023/05/15 02:16:46;;;;;;;14.75;11.35;;;;;;;;;;5080274;28;20226;-62
2023/05/15 02:19:11;;;;;;;16.80;12.32;;;;;;;;;;5069472;28;20237;-63
2023/05/15 02:21:36;;;;;;;13.93;11.25;;;;;;;;;;5068745;28;20210;-63
2023/05/15 02:24:02;;;;;;;17.42;13.15;;;;;;;;;;5069274;28;20228;-62
2023/05/15 02:26:28;;;;;;;17.60;12.95;;;;;;;;;;5069165;28;20222;-63
2023/05/15 02:29:03;;;;;;;15.00;12.73;;;;;;;;;;5070024;28;20215;-63
2023/05/15 02:31:31;;;;;;;19.70;13.48;;;;;;;;;;5072959;28;20206;-63
2023/05/15 02:33:59;;;;;;;19.52;14.57;;;;;;;;;;5071568;28;20209;-63
2023/05/15 02:36:27;;;;;;;16.90;14.25;;;;;;;;;;5072611;28;20210;-62
2023/05/15 02:38:52;;;;;;;16.67;13.65;;;;;;;;;;5073532;28;20210;-63
2023/05/15 02:41:17;;;;;;;19.33;14.57;;;;;;;;;;5069307;28;20215;-62
2023/05/15 02:43:43;;;;;;;18.23;14.70;;;;;;;;;;5071682;28;20562;-62
2023/05/15 02:46:08;;;;;;;16.40;13.75;;;;;;;;;;5072700;28;20258;-62
2023/05/15 02:48:34;;;;;;;15.80;13.32;;;;;;;;;;5081596;28;20206;-62
2023/05/15 02:50:59;;;;;;;19.08;13.80;;;;;;;;;;5093199;28;20263;-62
2023/05/15 02:53:25;;;;;;;16.77;13.85;;;;;;;;;;5092771;28;21048;-62
2023/05/15 02:55:50;;;;;;;17.95;13.30;;;;;;;;;;5092812;28;20213;-62
2023/05/15 02:58:15;;;;;;;19.52;14.25;;;;;;;;;;5092750;28;20210;-62
2023/05/15 03:00:40;;;;;;;19.05;13.35;;;;;;;;;;5093184;28;20222;-63
2023/05/15 03:03:06;;;;;;;18.58;13.77;;;;;;;;;;5091731;28;20210;-62
2023/05/15 03:05:31;;;;;;;18.33;14.52;;;;;;;;;;5089542;28;20221;-63
2023/05/15 03:07:56;;;;;;;16.90;13.60;;;;;;;;;;5072570;28;20679;-62
2023/05/15 03:10:23;;;;;;;18.75;14.48;;;;;;;;;;5069347;28;20214;-63
2023/05/15 03:12:48;;;;;;;18.90;13.77;;;;;;;;;;5077549;28;20217;-62
2023/05/15 03:15:13;;;;;;;19.80;15.35;;;;;;;;;;5076285;28;20226;-62
2023/05/15 03:17:38;;;;;;;16.55;14.18;;;;;;;;;;5062014;28;20349;-63
2023/05/15 03:20:04;;;;;;;16.83;13.95;;;;;;;;;;5066706;28;20217;-62
2023/05/15 03:22:29;;;;;;;17.38;14.35;;;;;;;;;;5075112;28;20208;-63
2023/05/15 03:24:55;;;;;;;19.45;15.13;;;;;;;;;;5075024;28;20224;-63
2023/05/15 03:27:20;;;;;;;16.48;13.93;;;;;;;;;;5080581;28;20945;-63
2023/05/15 03:29:47;;;;;;;19.67;13.70;;;;;;;;;;5062593;28;20289;-62
2023/05/15 03:32:13;;;;;;;18.70;13.02;;;;;;;;;;5082009;28;20241;-62
2023/05/15 03:34:38;;;;;;;18.15;13.48;;;;;;;;;;5082458;28;20244;-62
2023/05/15 03:37:03;;;;;;;15.70;12.52;;;;;;;;;;5081506;28;20217;-63
2023/05/15 03:39:29;;;;;;;16.45;14.05;;;;;;;;;;5082037;28;20691;-63
2023/05/15 03:41:54;;;;;;;18.48;13.93;;;;;;;;;;5076946;28;20635;-63
2023/05/15 03:44:19;;;;;;;18.77;14.40;;;;;;;;;;5073458;28;20221;-62
2023/05/15 03:46:45;;;;;;;18.50;13.80;;;;;;;;;;5074960;28;20383;-62
2023/05/15 03:49:10;;;;;;;21.98;16.08;;;;;;;;;;5065129;28;20226;-62
2023/05/15 03:51:35;;;;;;;19.50;14.98;;;;;;;;;;5062146;28;20206;-62
2023/05/15 03:54:03;;;;;;;20.02;15.35;;;;;;;;;;5061808;28;20222;-61
2023/05/15 03:56:29;;;;;;;21.95;17.30;;;;;;;;;;5082028;28;20217;-62
2023/05/15 03:58:54;;;;;;;26.85;20.27;;;;;;;;;;5081581;28;20206;-62
2023/05/15 04:01:20;;;;;;;23.13;18.80;;;;;;;;;;5081758;28;20620;-62
2023/05/15 04:03:45;;;;;;;28.63;21.77;;;;;;;;;;5079600;28;20310;-63
2023/05/15 04:06:10;;;;;;;29.42;23.00;;;;;;;;;;5064598;28;20230;-62
2023/05/15 04:08:35;;;;;;;37.83;24.70;;;;;;;;;;5054426;28;20528;-62
2023/05/15 04:11:01;;;;;;;37.17;25.02;;;;;;;;;;5056172;28;20222;-61
2023/05/15 04:13:26;;;;;;;35.58;25.60;;;;;;;;;;5060920;28;20238;-62
2023/05/15 04:15:52;;;;;;;32.78;23.98;;;;;;;;;;5062431;28;20677;-62
2023/05/15 04:18:18;;;;;;;38.75;27.35;;;;;;;;;;5061315;28;20288;-62
2023/05/15 04:20:43;;;;;;;35.25;25.80;;;;;;;;;;5062128;28;20897;-62
2023/05/15 04:23:08;;;;;;;30.50;23.17;;;;;;;;;;5061303;28;20297;-62
2023/05/15 04:25:33;;;;;;;34.25;25.10;;;;;;;;;;5061630;28;20248;-62
2023/05/15 04:27:59;;;;;;;32.22;22.55;;;;;;;;;;5053999;28;20530;-62
2023/05/15 04:30:24;;;;;;;32.38;24.75;;;;;;;;;;5053708;28;20207;-63
2023/05/15 04:32:50;;;;;;;36.45;26.05;;;;;;;;;;5074239;28;20206;-63
2023/05/15 04:35:16;;;;;;;31.58;24.05;;;;;;;;;;5079408;28;21253;-62
2023/05/15 04:37:42;;;;;;;37.22;25.45;;;;;;;;;;5081508;28;20212;-62
2023/05/15 04:40:08;;;;;;;32.20;23.48;;;;;;;;;;5079802;28;20463;-63
2023/05/15 04:42:33;;;;;;;29.65;23.23;;;;;;;;;;5081420;28;20220;-62
2023/05/15 04:44:58;;;;;;;30.00;23.00;;;;;;;;;;5081070;28;20213;-62
2023/05/15 04:47:24;;;;;;;28.30;22.15;;;;;;;;;;5080592;28;20222;-62
2023/05/15 04:49:49;;;;;;;24.92;21.77;;;;;;;;;;5071225;28;20210;-63
2023/05/15 04:52:15;;;;;;;26.60;20.90;;;;;;;;;;5053043;28;20210;-62
2023/05/15 04:54:40;;;;;;;24.52;19.70;;;;;;;;;;5052733;28;20218;-63
2023/05/15 04:57:06;;;;;;;28.05;20.30;;;;;;;;;;5057801;28;20225;-62
2023/05/15 04:59:31;;;;;;;23.02;19.00;;;;;;;;;;5061206;28;20225;-62
2023/05/15 05:01:56;;;;;;;23.98;20.17;;;;;;;;;;5079855;28;20210;-63
2023/05/15 05:04:22;;;;;;;23.30;19.48;;;;;;;;;;5080360;28;20241;-62
2023/05/15 05:06:47;;;;;;;23.05;18.92;;;;;;;;;;5079777;28;20726;-63
2023/05/15 05:09:12;;;;;;;26.38;20.85;;;;;;;;;;5060308;28;20279;-62
2023/05/15 05:11:38;;;;;;;22.40;18.88;;;;;;;;;;5058935;28;20206;-63
2023/05/15 05:14:03;;;;;;;24.35;19.13;;;;;;;;;;5058194;28;20222;-62
2023/05/15 05:16:28;;;;;;;23.08;17.83;;;;;;;;;;5079482;28;20198;-61
2023/05/15 05:18:54;;;;;;;25.75;19.67;;;;;;;;;;5070459;28;20233;-64
2023/05/15 05:21:19;;;;;;;25.23;19.55;;;;;;;;;;5069837;28;20230;-63
2023/05/15 05:23:46;;;;;;;22.87;20.43;;;;;;;;;;5068603;28;20475;-63
2023/05/15 05:26:11;;;;;;;25.42;21.80;;;;;;;;;;5069009;28;20422;-63
2023/05/15 05:28:36;;;;;;;21.95;18.60;;;;;;;;;;5070419;28;20202;-65
2023/05/15 05:31:01;;;;;;;22.45;17.63;;;;;;;;;;5077072;28;20304;-63
2023/05/15 05:33:27;;;;;;;23.77;19.77;;;;;;;;;;5081091;28;20538;-63
2023/05/15 05:35:52;;;;;;;24.77;19.48;;;;;;;;;;5083446;28;20231;-63
2023/05/15 05:38:17;;;;;;;24.52;19.85;;;;;;;;;;5078586;28;20736;-63
2023/05/15 05:40:43;;;;;;;22.50;19.60;;;;;;;;;;5084096;28;20202;-63
2023/05/15 05:43:08;;;;;;;25.83;20.67;;;;;;;;;;5081045;28;20611;-62
2023/05/15 05:45:33;;;;;;;23.77;19.48;;;;;;;;;;5079517;28;20740;-63
2023/05/15 05:47:58;;;;;;;26.70;20.25;;;;;;;;;;5083659;28;20224;-63
2023/05/15 05:50:24;;;;;;;23.80;19.60;;;;;;;;;;5089043;28;20776;-62
2023/05/15 05:52:49;;;;;;;23.35;18.88;;;;;;;;;;5083392;28;20214;-62
2023/05/15 05:55:14;;;;;;;21.65;17.65;;;;;;;;;;5080913;28;20202;-62
2023/05/15 05:57:39;;;;;;;22.60;18.10;;;;;;;;;;5083562;28;20548;-62
2023/05/15 06:00:07;;;;;;;23.15;18.33;;;;;;;;;;5081018;28;20213;-62
2023/05/15 06:02:33;;;;;;;22.23;17.25;;;;;;;;;;5080054;28;20239;-63
2023/05/15 06:04:58;;;;;;;19.98;17.13;;;;;;;;;;5084346;28;20221;-63
2023/05/15 06:07:23;;;;;;;20.80;17.30;;;;;;;;;;5080662;28;20650;-63
2023/05/15 06:09:49;;;;;;;19.83;15.55;;;;;;;;;;5088072;28;20210;-62
2023/05/15 06:12:14;;;;;;;21.73;16.10;;;;;;;;;;5081248;28;20305;-62
2023/05/15 06:14:39;;;;;;;18.48;16.50;;;;;;;;;;5083435;28;20210;-62
2023/05/15 06:17:05;;;;;;;19.30;15.35;;;;;;;;;;5080970;28;20689;-62
2023/05/15 06:19:30;;;;;;;19.55;15.60;;;;;;;;;;5082828;28;20213;-62
2023/05/15 06:21:55;;;;;;;20.63;15.38;;;;;;;;;;5093638;28;20205;-63
2023/05/15 06:24:21;;;;;;;19.98;14.68;;;;;;;;;;5075303;28;20229;-62
2023/05/15 06:26:46;;;;;;;17.30;14.73;;;;;;;;;;5073086;28;20586;-63
2023/05/15 06:29:11;;;;;;;16.73;14.30;;;;;;;;;;5068562;28;20242;-63
2023/05/15 06:31:36;;;;;;;17.63;14.10;;;;;;;;;;5072402;28;20207;-63
2023/05/15 06:34:02;;;;;;;15.27;13.45;;;;;;;;;;5072285;28;20222;-61
2023/05/15 06:36:27;;;;;;;15.80;13.05;;;;;;;;;;5073308;28;20289;-62
2023/05/15 06:38:52;;;;;;;15.90;12.43;;;;;;;;;;5073314;28;20218;-63
2023/05/15 06:41:17;;;;;;;14.43;10.73;;;;;;;;;;5072110;28;20674;-63
2023/05/15 06:43:43;;;;;;;18.05;11.95;;;;;;;;;;5084159;28;20815;-63
2023/05/15 06:46:08;;;;;;;16.08;10.98;;;;;;;;;;5090045;28;20240;-62
2023/05/15 06:48:34;;;;;;;14.38;9.93;;;;;;;;;;5083798;28;20696;-62
2023/05/15 06:50:59;;;;;;;12.25;10.38;;;;;;;;;;5078482;28;20245;-62
2023/05/15 06:53:25;;;;;;;13.20;9.05;;;;;;;;;;5078328;28;20619;-63
2023/05/15 06:55:50;;;;;;;11.40;8.93;;;;;;;;;;5072418;28;20214;-62
2023/05/15 06:58:16;;;;;;;11.50;8.63;;;;;;;;;;5072534;28;20219;-62
2023/05/15 07:00:42;;;;;;;12.95;9.85;;;;;;;;;;5072654;28;20742;-62
2023/05/15 07:03:07;;;;;;;14.15;9.80;;;;;;;;;;5072377;28;20210;-63
2023/05/15 07:05:33;;;;;;;11.93;9.73;;;;;;;;;;5073494;28;20249;-62
2023/05/15 07:07:58;;;;;;;14.90;8.57;;;;;;;;;;5078812;28;20209;-62
2023/05/15 07:10:23;;;;;;;11.43;8.20;;;;;;;;;;5072191;28;20648;-62
2023/05/15 07:12:48;;;;;;;11.35;8.00;;;;;;;;;;5080790;28;20221;-62
2023/05/15 07:15:16;;;;;;;11.82;7.10;;;;;;;;;;5091305;28;20249;-62
2023/05/15 07:17:41;;;;;;;10.18;6.57;;;;;;;;;;5077181;28;20214;-62
2023/05/15 07:20:07;;;;;;;9.32;6.57;;;;;;;;;;5084990;28;20224;-62
2023/05/15 07:22:32;;;;;;;7.90;6.03;;;;;;;;;;5091817;28;20205;-62
2023/05/15 07:24:57;;;;;;;10.55;6.20;;;;;;;;;;5092528;28;20226;-62
2023/05/15 07:27:22;;;;;;;11.00;8.02;;;;;;;;;;5077847;28;20218;-62
2023/05/15 07:29:48;;;;;;;12.15;8.38;;;;;;;;;;5071550;28;20293;-62
2023/05/15 07:32:13;;;;;;;13.50;9.05;;;;;;;;;;5071947;28;20218;-62
2023/05/15 07:34:38;;;;;;;11.07;8.85;;;;;;;;;;5072256;28;20230;-62
2023/05/15 07:37:04;;;;;;;10.13;7.95;;;;;;;;;;5071156;28;20206;-62
2023/05/15 07:39:29;;;;;;;10.88;8.10;;;;;;;;;;5072097;28;20217;-62
2023/05/15 07:41:54;;;;;;;10.77;7.93;;;;;;;;;;5072249;28;20206;-62
2023/05/15 07:44:20;;;;;;;9.65;6.60;;;;;;;;;;5073150;28;20815;-63
2023/05/15 07:46:45;;;;;;;9.10;8.00;;;;;;;;;;5085998;28;20198;-62
2023/05/15 07:49:10;;;;;;;13.73;8.38;;;;;;;;;;5077824;28;20309;-62
2023/05/15 07:51:35;;;;;;;11.25;7.90;;;;;;;;;;5078153;28;20252;-62
2023/05/15 07:54:02;;;;;;;11.43;7.53;;;;;;;;;;5088523;28;20217;-61
2023/05/15 07:56:28;;;;;;;11.00;7.10;;;;;;;;;;5092008;28;20214;-62
2023/05/15 07:58:53;;;;;;;10.55;7.40;;;;;;;;;;5090803;28;20247;-62
2023/05/15 08:01:18;;;;;;;9.85;6.90;;;;;;;;;;5091641;28;20210;-62
2023/05/15 08:03:43;;;;;;;11.10;7.30;;;;;;;;;;5092031;28;20232;-63
2023/05/15 08:06:09;;;;;;;10.60;7.13;;;;;;;;;;5090712;28;20587;-62
2023/05/15 08:08:34;;;;;;;11.13;7.65;;;;;;;;;;5091661;28;20233;-62
2023/05/15 08:10:59;;;;;;;9.80;6.80;;;;;;;;;;5091671;28;20729;-62
2023/05/15 08:13:25;;;;;;;8.50;6.82;;;;;;;;;;5080941;28;20705;-62
2023/05/15 08:15:50;;;;;;;10.05;6.32;;;;;;;;;;5080231;28;20214;-62
2023/05/15 08:18:16;;;;;;;9.77;6.10;;;;;;;;;;5070463;28;20214;-62
2023/05/15 08:20:41;;;;;;;8.80;5.65;;;;;;;;;;5071190;28;20271;-63
2023/05/15 08:23:06;;;;;;;8.35;5.60;;;;;;;;;;5070979;28;20584;-62
2023/05/15 08:25:31;;;;;;;9.68;5.53;;;;;;;;;;5070278;28;20306;-62
2023/05/15 08:27:57;;;;;;;8.23;5.45;;;;;;;;;;5073556;28;20199;-62
2023/05/15 08:30:22;;;;;;;9.07;5.38;;;;;;;;;;5083412;28;20296;-63
2023/05/15 08:32:48;;;;;;;8.48;5.25;;;;;;;;;;5078247;28;20210;-63
2023/05/15 08:35:13;;;;;;;7.93;5.28;;;;;;;;;;5070791;28;20203;-62
2023/05/15 08:37:38;;;;;;;9.90;5.90;;;;;;;;;;5071134;28;20214;-63
2023/05/15 08:40:06;;;;;;;10.15;6.10;;;;;;;;;;5070056;28;20215;-65
2023/05/15 08:42:34;;;;;;;10.43;6.80;;;;;;;;;;5070911;28;20263;-63
2023/05/15 08:44:59;;;;;;;13.27;6.63;;;;;;;;;;5069381;28;20222;-64
2023/05/15 08:47:26;;;;;;;8.95;6.60;;;;;;;;;;5069915;28;20210;-64
2023/05/15 08:49:55;;;;;;;10.80;7.10;;;;;;;;;;5087538;28;20292;-63
2023/05/15 08:52:20;;;;;;;10.13;7.47;;;;;;;;;;5077158;28;20271;-63
2023/05/15 08:54:46;;;;;;;10.32;7.72;;;;;;;;;;5068673;28;20210;-63
2023/05/15 08:57:12;;;;;;;10.70;8.35;;;;;;;;;;5068999;28;20255;-63
2023/05/15 08:59:37;;;;;;;11.73;8.98;;;;;;;;;;5070385;28;20211;-63
2023/05/15 09:02:02;;;;;;;11.45;7.88;;;;;;;;;;5069487;28;20240;-64
2023/05/15 09:04:27;;;;;;;9.60;7.57;;;;;;;;;;5070624;28;20237;-65
2023/05/15 09:06:53;;;;;;;9.38;6.85;;;;;;;;;;5070602;28;20344;-65
2023/05/15 09:09:18;;;;;;;10.05;7.13;;;;;;;;;;5068158;28;20245;-64
2023/05/15 09:11:43;;;;;;;11.75;6.60;;;;;;;;;;5074181;28;20233;-62
2023/05/15 09:14:09;;;;;;;9.05;6.07;;;;;;;;;;5085250;28;20224;-65
2023/05/15 09:16:35;;;;;;;11.60;6.22;;;;;;;;;;5083806;28;20773;-64
2023/05/15 09:19:00;;;;;;;9.15;6.05;;;;;;;;;;5090713;28;20309;-64
2023/05/15 09:21:26;;;;;;;12.10;6.78;;;;;;;;;;5077693;28;20668;-64
2023/05/15 09:23:51;;;;;;;10.93;6.10;;;;;;;;;;5090459;28;20220;-65
2023/05/15 09:26:17;;;;;;;8.82;6.80;;;;;;;;;;5084842;28;20213;-64
2023/05/15 09:28:42;;;;;;;9.98;5.80;;;;;;;;;;5068004;28;20206;-64
2023/05/15 09:31:08;;;;;;;10.23;6.15;;;;;;;;;;5069734;28;20214;-64
2023/05/15 09:33:34;;;;;;;10.65;6.85;;;;;;;;;;5070396;28;20256;-65
2023/05/15 09:36:00;;;;;;;11.40;7.38;;;;;;;;;;5069577;28;20214;-65
2023/05/15 09:38:25;;;;;;;10.57;5.20;;;;;;;;;;5069834;28;20218;-65
2023/05/15 09:40:59;;;;;;;10.10;5.25;;;;;;;;;;5069930;28;20630;-64
2023/05/15 09:43:25;;;;;;;9.48;4.85;;;;;;;;;;5068669;28;20232;-64
2023/05/15 09:45:50;;;;;;;8.20;5.07;;;;;;;;;;5068426;28;20637;-64
2023/05/15 09:48:16;;;;;;;9.45;4.80;;;;;;;;;;5074635;28;20205;-64
2023/05/15 09:50:41;;;;;;;6.95;4.43;;;;;;;;;;5088325;28;20202;-64
2023/05/15 09:53:06;;;;;;;8.98;5.28;;;;;;;;;;5089854;28;20206;-64
2023/05/15 09:55:33;;;;;;;8.18;4.68;;;;;;;;;;5088795;28;20206;-65
2023/05/15 09:58:03;;;;;;;9.13;4.65;;;;;;;;;;5089140;28;20216;-65
2023/05/15 10:00:29;;;;;;;7.00;5.00;;;;;;;;;;5089745;28;20244;-64
2023/05/15 10:02:56;;;;;;;7.57;5.75;;;;;;;;;;5090032;28;20282;-64
2023/05/15 10:05:21;;;;;;;7.13;5.90;;;;;;;;;;5085277;28;20218;-65
2023/05/15 10:07:47;;;;;;;7.32;5.45;;;;;;;;;;5068598;28;20738;-64
2023/05/15 10:10:12;;;;;;;6.88;5.40;;;;;;;;;;5067908;28;20222;-65
2023/05/15 10:12:37;;;;;;;6.88;5.47;;;;;;;;;;5068897;28;20285;-65
2023/05/15 10:15:03;;;;;;;7.47;5.30;;;;;;;;;;5068044;28;20234;-64
2023/05/15 10:17:29;;;;;;;7.53;5.53;;;;;;;;;;5083617;28;20232;-65
2023/05/15 10:19:54;;;;;;;9.00;6.05;;;;;;;;;;5075441;28;20214;-65
2023/05/15 10:22:22;;;;;;;7.22;5.20;;;;;;;;;;5068072;28;20209;-64
2023/05/15 10:24:47;;;;;;;7.70;5.15;;;;;;;;;;5073489;28;20226;-65
2023/05/15 10:27:13;;;;;;;7.13;5.22;;;;;;;;;;5078690;28;20614;-63
2023/05/15 10:29:38;;;;;;;6.32;5.18;;;;;;;;;;5084020;28;20226;-65
2023/05/15 10:32:03;;;;;;;7.32;5.82;;;;;;;;;;5067181;28;20210;-65
2023/05/15 10:34:29;;;;;;;10.18;5.68;;;;;;;;;;5069620;28;20613;-65
2023/05/15 10:36:54;;;;;;;12.65;7.75;;;;;;;;;;5068582;28;20210;-65
2023/05/15 10:39:19;;;;;;;9.27;7.10;;;;;;;;;;5068673;28;20218;-65
2023/05/15 10:41:44;;;;;;;10.15;7.13;;;;;;;;;;5068254;28;20195;-65
2023/05/15 10:44:10;;;;;;;13.25;8.00;;;;;;;;;;5067650;28;20778;-66
2023/05/15 10:46:35;;;;;;;9.82;7.72;;;;;;;;;;5069050;28;20210;-65
2023/05/15 10:49:01;;;;;;;9.15;7.40;;;;;;;;;;5069050;28;20207;-63
2023/05/15 10:51:26;;;;;;;7.13;5.90;;;;;;;;;;5072345;28;20210;-65
2023/05/15 10:53:52;;;;;;;10.70;5.55;;;;;;;;;;5072419;28;20711;-65
2023/05/15 10:56:17;;;;;;;8.43;5.15;;;;;;;;;;5082416;28;20223;-65
2023/05/15 10:58:46;;;;;;;6.03;4.30;;;;;;;;;;5093034;28;20209;-66
2023/05/15 11:01:26;;;;;;;7.03;4.78;;;;;;;;;;5092112;28;20250;-64
2023/05/15 11:04:03;;;;;;;11.15;5.35;;;;;;;;;;5086763;28;20206;-66
2023/05/15 11:06:31;;;;;;;9.13;5.65;;;;;;;;;;5077961;28;20684;-65
2023/05/15 11:09:16;;;;;;;6.95;5.20;;;;;;;;;;5084564;28;20228;-67
2023/05/15 11:11:50;;;;;;;8.80;5.78;;;;;;;;;;5070789;28;20230;-65
2023/05/15 11:14:16;;;;;;;8.63;6.10;;;;;;;;;;5071312;28;20238;-64
2023/05/15 11:16:51;;;;;;;7.55;5.50;;;;;;;;;;5079845;28;20214;-65
2023/05/15 11:19:21;;;;;;;9.88;7.00;;;;;;;;;;5092376;28;20220;-66
2023/05/15 11:21:46;;;;;;;9.85;6.45;;;;;;;;;;5090853;28;20202;-66
2023/05/15 11:24:11;;;;;;;8.32;4.97;;;;;;;;;;5092194;28;20608;-66
2023/05/15 11:26:41;;;;;;;9.07;5.20;;;;;;;;;;5084653;28;20340;-64
2023/05/15 11:29:16;;;;;;;10.05;5.57;;;;;;;;;;5071481;28;20270;-65
2023/05/15 11:31:41;;;;;;;9.02;6.10;;;;;;;;;;5072586;28;20249;-67
2023/05/15 11:34:06;;;;;;;7.85;6.10;;;;;;;;;;5071971;28;20253;-65
2023/05/15 11:36:32;;;;;;;8.07;6.80;;;;;;;;;;5071766;28;20768;-67
2023/05/15 11:38:57;;;;;;;10.07;6.95;;;;;;;;;;5073671;28;20203;-65
2023/05/15 11:41:28;;;;;;;9.95;7.05;;;;;;;;;;5078460;28;20209;-68
2023/05/15 11:43:54;;;;;;;9.52;7.25;;;;;;;;;;5074191;28;20203;-66
2023/05/15 11:46:19;;;;;;;9.75;7.25;;;;;;;;;;5070313;28;20224;-65
2023/05/15 11:48:46;;;;;;;10.63;8.18;;;;;;;;;;5070837;28;20272;-65
2023/05/15 11:51:12;;;;;;;10.30;7.50;;;;;;;;;;5070850;28;20218;-64
2023/05/15 11:53:38;;;;;;;12.80;10.43;;;;;;;;;;5072233;28;20264;-65
2023/05/15 11:56:03;;;;;;;11.68;8.10;;;;;;;;;;5071714;28;20218;-64
2023/05/15 11:58:28;;;;;;;10.63;8.30;;;;;;;;;;5073522;28;20302;-65
2023/05/15 12:00:54;;;;;;;10.25;7.97;;;;;;;;;;5071741;28;20213;-66
2023/05/15 12:03:22;;;;;;;11.82;7.57;;;;;;;;;;5069665;28;20214;-65
2023/05/15 12:05:47;;;;;;;11.68;9.65;;;;;;;;;;5077639;28;20221;-67
2023/05/15 12:08:13;;;;;;;10.15;8.88;;;;;;;;;;5091580;28;20210;-65
2023/05/15 12:10:41;;;;;;;11.68;9.75;;;;;;;;;;5091126;28;20669;-65
2023/05/15 12:13:06;;;;;;;12.55;10.13;;;;;;;;;;5090988;28;20575;-65
2023/05/15 12:15:31;;;;;;;12.18;10.32;;;;;;;;;;5087418;28;20202;-67
2023/05/15 12:17:56;;;;;;;14.95;11.55;;;;;;;;;;5070721;28;20202;-66
2023/05/15 12:20:22;;;;;;;16.30;12.73;;;;;;;;;;5071013;28;20232;-65
2023/05/15 12:22:47;;;;;;;15.00;13.40;;;;;;;;;;5071532;28;20214;-65
2023/05/15 12:25:13;;;;;;;12.77;10.93;;;;;;;;;;5076410;28;20583;-68
2023/05/15 12:27:38;;;;;;;16.17;11.50;;;;;;;;;;5087124;28;20289;-65
2023/05/15 12:30:04;;;;;;;12.57;10.82;;;;;;;;;;5083320;28;20305;-64
2023/05/15 12:32:30;;;;;;;14.73;11.50;;;;;;;;;;5070582;28;20226;-65
2023/05/15 12:34:55;;;;;;;16.40;12.82;;;;;;;;;;5071298;28;20214;-65
2023/05/15 12:37:21;;;;;;;13.90;11.57;;;;;;;;;;5069642;28;20210;-65
2023/05/15 12:39:53;;;;;;;17.33;15.43;;;;;;;;;;5069048;28;20222;-65
2023/05/15 12:42:19;;;;;;;17.27;15.02;;;;;;;;;;5070280;28;20266;-65
2023/05/15 12:44:44;;;;;;;17.23;13.88;;;;;;;;;;5070839;28;20230;-66
2023/05/15 12:47:12;;;;;;;18.00;14.38;;;;;;;;;;5068446;28;20214;-64
2023/05/15 12:49:37;;;;;;;16.88;14.90;;;;;;;;;;5069425;28;20205;-65
2023/05/15 12:52:07;;;;;;;15.82;13.45;;;;;;;;;;5070508;28;20210;-63
2023/05/15 12:54:37;;;;;;;18.40;15.27;;;;;;;;;;5070037;28;20214;-64
2023/05/15 12:57:02;;;;;;;18.05;14.98;;;;;;;;;;5070129;28;20340;-65
2023/05/15 12:59:27;;;;;;;17.27;14.05;;;;;;;;;;5070305;28;20305;-65
2023/05/15 13:01:53;;;;;;;15.07;12.50;;;;;;;;;;5068825;28;20252;-64
2023/05/15 13:04:18;;;;;;;14.93;13.13;;;;;;;;;;5070160;28;20220;-65
2023/05/15 13:06:43;;;;;;;17.52;13.48;;;;;;;;;;5069634;28;20515;-65
2023/05/15 13:09:08;;;;;;;17.20;13.57;;;;;;;;;;5068699;28;20214;-64
2023/05/15 13:11:34;;;;;;;16.63;13.32;;;;;;;;;;5070190;28;20315;-64
2023/05/15 13:13:59;;;;;;;14.95;11.98;;;;;;;;;;5069470;28;20226;-65
2023/05/15 13:16:25;;;;;;;13.63;12.02;;;;;;;;;;5069867;28;20699;-64
2023/05/15 13:18:50;;;;;;;17.80;14.18;;;;;;;;;;5070557;28;20211;-65
2023/05/15 13:21:16;;;;;;;14.70;12.50;;;;;;;;;;5069110;28;20693;-64
2023/05/15 13:23:41;;;;;;;15.85;14.02;;;;;;;;;;5070080;28;20453;-64
2023/05/15 13:26:07;;;;;;;14.40;12.60;;;;;;;;;;5076570;28;20230;-63
2023/05/15 13:28:32;;;;;;;15.02;12.07;;;;;;;;;;5072240;28;20210;-65
2023/05/15 13:30:57;;;;;;;17.10;14.00;;;;;;;;;;5070111;28;20475;-65
2023/05/15 13:33:24;;;;;;;16.75;13.48;;;;;;;;;;5069990;28;20214;-64
2023/05/15 13:35:49;;;;;;;15.48;12.60;;;;;;;;;;5069521;28;20198;-63
2023/05/15 13:38:15;;;;;;;15.43;12.57;;;;;;;;;;5069896;28;20264;-63
2023/05/15 13:40:40;;;;;;;17.55;14.80;;;;;;;;;;5074801;28;20202;-64
2023/05/15 13:43:05;;;;;;;19.77;15.35;;;;;;;;;;5072115;28;20305;-63
2023/05/15 13:45:30;;;;;;;16.77;12.98;;;;;;;;;;5073648;28;20223;-63
2023/05/15 13:47:56;;;;;;;17.38;15.45;;;;;;;;;;5074575;28;20740;-63
2023/05/15 13:50:21;;;;;;;17.15;13.70;;;;;;;;;;5087336;28;20213;-63
2023/05/15 13:52:46;;;;;;;18.15;15.57;;;;;;;;;;5075250;28;20677;-63
2023/05/15 13:55:12;;;;;;;17.58;15.70;;;;;;;;;;5069548;28;20241;-64
2023/05/15 13:57:38;;;;;;;19.40;15.35;;;;;;;;;;5080729;28;20221;-62
2023/05/15 14:00:06;;;;;;;19.55;17.45;;;;;;;;;;5063548;28;20259;-62
2023/05/15 14:02:31;;;;;;;17.85;15.00;;;;;;;;;;5070371;28;20318;-63
2023/05/15 14:04:56;;;;;;;20.98;16.48;;;;;;;;;;5057777;28;20682;-63
2023/05/15 14:07:22;;;;;;;19.40;16.17;;;;;;;;;;5074947;28;20243;-63
2023/05/15 14:09:47;;;;;;;18.48;15.85;;;;;;;;;;5083236;28;20213;-63
2023/05/15 14:12:13;;;;;;;20.58;17.23;;;;;;;;;;5083361;28;20239;-62
2023/05/15 14:14:38;;;;;;;18.70;15.00;;;;;;;;;;5082672;28;20656;-63
2023/05/15 14:17:03;;;;;;;16.98;13.90;;;;;;;;;;5063145;28;20215;-63
2023/05/15 14:19:28;;;;;;;16.77;13.63;;;;;;;;;;5064070;28;20257;-62